.
WxDataArchive / Data Records for 2009-02-14
2009-02-13 February 2009 2009-02-15

Data Records for Saturday, 14 February 2009

Time	Temp	Chill	HIndex	Humid	Dewpt	 Wind 	HiWind	WindDir	Rain 	Barom 
-----	----	-----	------	-----	-----	------	------	-------	-----	----- 
00:00	34.6	34.6	34.6	72	26.5	1	4	90	0.00	30.092 
00:05	34.6	34.6	34.6	72	26.5	1	4	112	0.00	30.081 
00:10	34.4	34.4	34.4	72	26.3	1	3	112	0.00	30.076 
00:15	34.4	34.4	34.4	73	26.7	1	2	112	0.00	30.080 
00:20	34.3	34.3	34.3	73	26.6	1	4	90	0.00	30.079 
00:25	34.3	34.3	34.3	73	26.6	2	4	90	0.00	30.072 
00:30	34.1	34.1	34.1	73	26.4	2	5	90	0.00	30.065 
00:35	34.1	34.1	34.1	74	26.7	1	3	90	0.00	30.065 
00:40	34.1	34.1	34.1	74	26.7	1	3	90	0.00	30.063 
00:45	34.0	34.0	34.0	74	26.6	1	3	90	0.00	30.063 
00:50	34.0	34.0	34.0	75	26.9	1	2	90	0.00	30.064 
00:55	34.0	34.0	34.0	75	26.9	1	4	90	0.00	30.062 
01:00	34.0	34.0	34.0	75	26.9	1	3	90	0.00	30.061 
01:05	34.0	34.0	34.0	75	26.9	2	3	90	0.00	30.056 
01:10	34.0	34.0	34.0	75	26.9	1	4	90	0.00	30.050 
01:15	34.0	34.0	34.0	75	26.9	1	3	90	0.00	30.051 
01:20	33.8	33.8	33.8	76	27.1	0	2	90	0.00	30.048 
01:25	33.8	33.8	33.8	75	26.7	2	5	90	0.00	30.046 
01:30	33.8	33.8	33.8	76	27.1	1	2	90	0.00	30.045 
01:35	33.8	33.8	33.8	76	27.1	1	3	90	0.00	30.038 
01:40	33.7	33.7	33.7	76	27.0	2	4	90	0.00	30.031 
01:45	33.7	33.7	33.7	77	27.3	1	3	90	0.00	30.028 
01:50	33.5	33.5	33.5	77	27.1	2	4	90	0.00	30.022 
01:55	33.4	33.4	33.4	77	27.0	1	4	90	0.00	30.021 
02:00	33.2	33.2	33.2	78	27.1	2	4	90	0.00	30.019 
02:05	33.1	33.1	33.1	79	27.3	3	6	90	0.00	30.016 
02:10	33.1	33.1	33.1	79	27.3	2	5	90	0.00	30.017 
02:15	33.1	33.1	33.1	79	27.3	2	3	90	0.00	30.015 
02:20	33.1	33.1	33.1	79	27.3	1	3	90	0.00	30.016 
02:25	33.1	33.1	33.1	80	27.6	1	2	90	0.00	30.017 
02:30	33.1	33.1	33.1	80	27.6	0	1	90	0.00	30.023 
02:35	32.9	32.9	32.9	80	27.4	0	1	90	0.00	30.021 
02:40	32.9	32.9	32.9	80	27.4	1	3	90	0.00	30.018 
02:45	32.9	32.9	32.9	80	27.4	1	2	90	0.00	30.014 
02:50	32.9	32.9	32.9	79	27.1	1	2	90	0.00	30.012 
02:55	32.9	32.9	32.9	79	27.1	1	2	90	0.00	30.011 
03:00	33.1	33.1	33.1	79	27.3	1	3	90	0.00	30.013 
03:05	33.1	33.1	33.1	79	27.3	0	4	90	0.00	30.013 
03:10	33.1	33.1	33.1	78	27.0	1	3	90	0.00	30.007 
03:15	33.1	33.1	33.1	78	27.0	1	3	90	0.00	30.003 
03:20	33.1	33.1	33.1	78	27.0	2	4	112	0.00	29.999 
03:25	33.1	33.1	33.1	78	27.0	1	4	112	0.00	29.999 
03:30	33.1	33.1	33.1	79	27.3	0	2	112	0.00	30.000 
03:35	33.1	33.1	33.1	79	27.3	0	2	112	0.00	30.000 
03:40	32.9	32.9	32.9	80	27.4	0	1	112	0.00	30.002 
03:45	32.9	32.9	32.9	80	27.4	0	1	112	0.00	30.010 
03:50	32.9	32.9	32.9	80	27.4	0	1	112	0.00	30.012 
03:55	32.8	32.8	32.8	80	27.3	0	0	---	0.00	30.014 
04:00	32.8	32.8	32.8	81	27.6	0	0	---	0.00	30.014 
04:05	32.8	32.8	32.8	81	27.6	0	1	112	0.00	30.016 
04:10	32.7	32.7	32.7	82	27.8	0	0	---	0.00	30.015 
04:15	32.7	32.7	32.7	83	28.1	0	1	112	0.00	30.015 
04:20	32.5	32.5	32.5	84	28.2	0	1	112	0.00	30.015 
04:25	32.4	32.4	32.4	85	28.4	0	1	112	0.00	30.017 
04:30	32.2	32.2	32.2	87	28.8	0	1	112	0.00	30.017 
04:35	32.1	32.1	32.1	88	29.0	0	1	112	0.00	30.016 
04:40	31.9	31.9	31.9	88	28.8	0	0	---	0.00	30.019 
04:45	31.8	31.8	31.8	89	28.9	0	0	---	0.00	30.019 
04:50	31.8	31.8	31.8	89	28.9	0	0	---	0.00	30.018 
04:55	31.6	31.6	31.6	90	29.0	0	0	---	0.00	30.018 
05:00	31.5	31.5	31.5	90	28.9	0	0	---	0.00	30.018 
05:05	31.5	31.5	31.5	90	28.9	0	1	112	0.00	30.018 
05:10	31.5	31.5	31.5	90	28.9	0	0	---	0.00	30.018 
05:15	31.3	31.3	31.3	91	29.0	0	0	---	0.00	30.022 
05:20	31.3	31.3	31.3	91	29.0	0	1	112	0.00	30.021 
05:25	31.3	31.3	31.3	91	29.0	0	0	---	0.00	30.021 
05:30	31.3	31.3	31.3	91	29.0	0	0	---	0.00	30.022 
05:35	31.2	31.2	31.2	91	28.9	0	0	---	0.00	30.020 
05:40	31.2	31.2	31.2	92	29.2	0	1	112	0.00	30.022 
05:45	31.2	31.2	31.2	92	29.2	0	0	---	0.00	30.021 
05:50	31.2	31.2	31.2	92	29.2	0	0	---	0.00	30.021 
05:55	31.2	31.2	31.2	92	29.2	0	0	---	0.00	30.020 
06:00	31.0	31.0	31.0	92	29.0	0	0	---	0.00	30.019 
06:05	31.0	31.0	31.0	92	29.0	0	0	---	0.00	30.022 
06:10	31.0	31.0	31.0	92	29.0	0	0	---	0.00	30.022 
06:15	31.0	31.0	31.0	92	29.0	0	1	112	0.00	30.017 
06:20	31.0	31.0	31.0	92	29.0	0	2	112	0.00	30.015 
06:25	31.0	31.0	31.0	92	29.0	0	1	112	0.00	30.011 
06:30	31.0	31.0	31.0	93	29.2	0	1	112	0.00	30.010 
06:35	30.9	30.9	30.9	93	29.1	0	1	112	0.00	30.012 
06:40	30.9	30.9	30.9	93	29.1	0	1	112	0.00	30.011 
06:45	30.9	30.9	30.9	93	29.1	0	1	112	0.00	30.009 
06:50	30.9	30.9	30.9	93	29.1	0	2	112	0.00	30.009 
06:55	30.9	30.9	30.9	93	29.1	0	2	112	0.00	30.007 
07:00	30.7	30.7	30.7	93	28.9	0	2	112	0.00	30.007 
07:05	30.7	30.7	30.7	93	28.9	0	2	112	0.00	30.008 
07:10	30.7	30.7	30.7	93	28.9	0	2	112	0.00	30.008 
07:15	30.6	30.6	30.6	93	28.8	0	2	112	0.00	30.009 
07:20	30.6	30.6	30.6	93	28.8	0	1	112	0.00	30.009 
07:25	30.6	30.6	30.6	93	28.8	0	1	112	0.00	30.008 
07:30	30.6	30.6	30.6	94	29.1	0	1	112	0.00	30.008 
07:35	30.4	30.4	30.4	94	28.9	0	1	112	0.00	30.010 
07:40	30.4	30.4	30.4	94	28.9	0	2	112	0.00	30.010 
07:45	30.4	30.4	30.4	94	28.9	0	1	112	0.00	30.011 
07:50	30.4	30.4	30.4	94	28.9	0	0	---	0.00	30.013 
07:55	30.6	30.6	30.6	94	29.1	0	0	---	0.00	30.014 
08:00	30.6	30.6	30.6	94	29.1	0	1	112	0.00	30.016 
08:05	30.6	30.6	30.6	94	29.1	0	0	---	0.00	30.020 
08:10	30.6	30.6	30.6	94	29.1	0	1	112	0.00	30.024 
08:15	30.6	30.6	30.6	94	29.1	0	0	---	0.00	30.025 
08:20	30.7	30.7	30.7	94	29.2	0	0	---	0.00	30.025 
08:25	30.7	30.7	30.7	94	29.2	0	0	---	0.00	30.024 
08:30	30.7	30.7	30.7	94	29.2	0	0	---	0.00	30.023 
08:35	30.9	30.9	30.9	94	29.4	0	1	112	0.00	30.021 
08:40	30.9	30.9	30.9	94	29.4	0	0	---	0.00	30.018 
08:45	31.0	31.0	31.0	94	29.5	0	1	112	0.00	30.017 
08:50	31.0	31.0	31.0	94	29.5	0	0	---	0.00	30.020 
08:55	31.0	31.0	31.0	94	29.5	0	0	---	0.00	30.023 
09:00	31.2	31.2	31.2	94	29.7	0	0	---	0.00	30.025 
09:05	31.2	31.2	31.2	94	29.7	0	0	---	0.00	30.025 
09:10	31.3	31.3	31.3	94	29.8	0	0	---	0.00	30.026 
09:15	31.3	31.3	31.3	94	29.8	0	0	---	0.00	30.028 
09:20	31.3	31.3	31.3	94	29.8	0	0	---	0.00	30.035 
09:25	31.3	31.3	31.3	94	29.8	0	0	---	0.00	30.037 
09:30	31.5	31.5	31.5	94	30.0	0	1	112	0.00	30.037 
09:35	31.5	31.5	31.5	94	30.0	0	0	---	0.00	30.036 
09:40	31.5	31.5	31.5	94	30.0	0	1	112	0.00	30.038 
09:45	31.6	31.6	31.6	94	30.1	0	0	---	0.00	30.038 
09:50	31.6	31.6	31.6	93	29.8	0	0	---	0.00	30.039 
09:55	31.8	31.8	31.8	93	30.0	0	1	112	0.00	30.038 
10:00	31.8	31.8	31.8	93	30.0	0	1	112	0.00	30.039 
10:05	31.9	31.9	31.9	93	30.1	0	0	---	0.00	30.037 
10:10	31.9	31.9	31.9	93	30.1	0	1	112	0.00	30.038 
10:15	32.1	32.1	32.1	93	30.3	0	1	112	0.00	30.037 
10:20	32.2	32.2	32.2	93	30.4	0	1	112	0.01	30.037 
10:25	32.2	32.2	32.2	93	30.4	0	2	112	0.00	30.036 
10:30	32.4	32.4	32.4	93	30.6	0	2	112	0.00	30.033 
10:35	32.5	32.5	32.5	93	30.7	0	1	112	0.00	30.035 
10:40	32.7	32.7	32.7	92	30.6	0	2	112	0.00	30.036 
10:45	32.8	32.8	32.8	92	30.7	0	1	112	0.01	30.038 
10:50	32.9	32.9	32.9	92	30.8	0	1	112	0.00	30.038 
10:55	32.9	32.9	32.9	92	30.8	0	1	112	0.00	30.042 
11:00	32.9	32.9	32.9	92	30.8	0	2	112	0.00	30.042 
11:05	33.1	33.1	33.1	92	31.0	0	1	112	0.00	30.043 
11:10	33.1	33.1	33.1	91	30.8	0	2	112	0.01	30.045 
11:15	33.1	33.1	33.1	91	30.8	0	1	112	0.00	30.049 
11:20	33.1	33.1	33.1	91	30.8	0	1	90	0.00	30.048 
11:25	32.9	32.9	32.9	90	30.3	0	1	90	0.00	30.049 
11:30	33.1	33.1	33.1	90	30.5	0	2	90	0.01	30.050 
11:35	33.2	33.2	33.2	90	30.6	0	2	90	0.00	30.049 
11:40	33.1	33.1	33.1	90	30.5	1	4	292	0.00	30.051 
11:45	33.2	33.2	33.2	90	30.6	0	1	292	0.00	30.052 
11:50	33.1	33.1	33.1	89	30.2	1	3	22	0.00	30.051 
11:55	32.9	32.9	32.9	89	30.0	1	2	0	0.00	30.052 
12:00	32.5	32.5	32.5	89	29.6	2	5	270	0.00	30.055 
12:05	32.4	32.4	32.4	89	29.5	1	3	270	0.00	30.055 
12:10	32.2	32.2	32.2	89	29.3	1	5	315	0.01	30.056 
12:15	32.2	32.2	32.2	89	29.3	1	4	338	0.00	30.057 
12:20	32.2	32.2	32.2	89	29.3	1	3	315	0.00	30.056 
12:25	32.4	32.4	32.4	88	29.3	1	2	315	0.00	30.055 
12:30	32.5	32.5	32.5	88	29.3	0	2	338	0.00	30.058 
12:35	32.5	32.5	32.5	88	29.3	1	5	338	0.00	30.057 
12:40	32.5	32.5	32.5	87	29.1	1	3	338	0.00	30.056 
12:45	32.5	32.5	32.5	87	29.1	1	2	315	0.00	30.055 
12:50	32.7	32.7	32.7	87	29.3	1	4	338	0.00	30.055 
12:55	32.7	32.7	32.7	86	29.0	1	3	338	0.00	30.053 
13:00	32.9	32.9	32.9	86	29.2	1	5	315	0.00	30.054 
13:05	32.9	32.9	32.9	85	28.9	2	5	292	0.00	30.054 
13:10	33.1	33.1	33.1	85	29.1	1	4	0	0.01	30.056 
13:15	33.2	33.2	33.2	84	28.9	1	6	292	0.00	30.056 
13:20	33.2	33.2	33.2	84	28.9	1	3	315	0.00	30.056 
13:25	33.4	33.4	33.4	84	29.1	0	2	270	0.00	30.058 
13:30	33.2	33.2	33.2	82	28.3	2	9	292	0.00	30.062 
13:35	33.4	33.4	33.4	81	28.2	1	5	338	0.00	30.061 
13:40	33.7	33.7	33.7	81	28.5	1	4	292	0.00	30.062 
13:45	33.7	33.7	33.7	79	27.9	2	7	338	0.00	30.063 
13:50	33.7	33.7	33.7	80	28.2	2	9	292	0.00	30.064 
13:55	33.5	33.5	33.5	80	28.0	1	3	315	0.00	30.063 
14:00	33.7	33.7	33.7	80	28.2	1	4	270	0.00	30.064 
14:05	33.7	33.7	33.7	80	28.2	1	4	338	0.00	30.063 
14:10	33.7	33.7	33.7	79	27.9	1	4	0	0.00	30.064 
14:15	33.5	33.5	33.5	79	27.7	1	6	270	0.00	30.066 
14:20	33.4	33.4	33.4	78	27.3	2	10	0	0.00	30.065 
14:25	33.4	33.4	33.4	79	27.6	2	5	270	0.00	30.065 
14:30	33.5	33.5	33.5	78	27.4	2	5	292	0.00	30.066 
14:35	33.7	33.7	33.7	78	27.6	1	7	22	0.00	30.067 
14:40	33.8	33.8	33.8	78	27.7	1	5	292	0.01	30.067 
14:45	33.8	33.8	33.8	77	27.4	1	7	0	0.00	30.068 
14:50	33.8	33.8	33.8	76	27.1	2	5	338	0.00	30.069 
14:55	33.8	33.8	33.8	76	27.1	1	4	0	0.00	30.071 
15:00	33.7	33.7	33.7	74	26.3	2	5	315	0.00	30.076 
15:05	33.7	33.7	33.7	73	26.0	1	4	338	0.00	30.076 
15:10	33.7	33.7	33.7	73	26.0	1	3	270	0.00	30.081 
15:15	33.8	33.8	33.8	73	26.1	1	5	338	0.00	30.083 
15:20	33.7	33.7	33.7	71	25.3	2	4	315	0.00	30.083 
15:25	33.5	33.5	33.5	71	25.1	1	4	270	0.00	30.085 
15:30	33.5	33.5	33.5	71	25.1	2	5	292	0.00	30.089 
15:35	33.4	33.4	33.4	71	25.0	1	5	270	0.00	30.096 
15:40	33.2	33.2	33.2	72	25.2	1	5	292	0.00	30.099 
15:45	33.2	33.2	33.2	73	25.5	0	2	292	0.00	30.099 
15:50	33.2	33.2	33.2	73	25.5	1	4	292	0.00	30.098 
15:55	33.2	33.2	33.2	74	25.8	1	4	315	0.00	30.100 
16:00	33.4	33.4	33.4	74	26.0	1	3	292	0.00	30.100 
16:05	33.4	33.4	33.4	72	25.4	1	4	292	0.00	30.102 
16:10	33.5	33.5	33.5	73	25.8	0	3	292	0.00	30.103 
16:15	33.7	33.7	33.7	71	25.3	1	3	292	0.00	30.102 
16:20	33.7	33.7	33.7	71	25.3	1	5	270	0.00	30.104 
16:25	34.0	34.0	34.0	70	25.3	1	6	0	0.00	30.106 
16:30	34.3	34.3	34.3	70	25.5	0	3	292	0.00	30.105 
16:35	34.1	34.1	34.1	67	24.3	1	3	292	0.00	30.105 
16:40	34.1	34.1	34.1	67	24.3	1	2	338	0.00	30.108 
16:45	34.0	34.0	34.0	67	24.2	0	3	338	0.00	30.112 
16:50	33.8	33.8	33.8	66	23.7	1	4	338	0.00	30.114 
16:55	33.8	33.8	33.8	66	23.7	1	4	292	0.00	30.115 
17:00	33.8	33.8	33.8	65	23.3	1	4	338	0.00	30.115 
17:05	33.8	33.8	33.8	66	23.7	1	4	292	0.00	30.117 
17:10	33.8	33.8	33.8	66	23.7	1	3	0	0.00	30.117 
17:15	33.8	33.8	33.8	65	23.3	1	4	292	0.00	30.119 
17:20	33.8	33.8	33.8	66	23.7	0	2	270	0.00	30.119 
17:25	33.8	33.8	33.8	66	23.7	1	2	315	0.00	30.121 
17:30	33.8	33.8	33.8	65	23.3	1	5	270	0.00	30.128 
17:35	33.8	33.8	33.8	65	23.3	0	2	270	0.00	30.132 
17:40	33.8	33.8	33.8	64	22.9	1	3	270	0.00	30.134 
17:45	33.7	33.7	33.7	64	22.8	0	3	270	0.00	30.136 
17:50	33.7	33.7	33.7	64	22.8	1	3	315	0.00	30.136 
17:55	33.7	33.7	33.7	65	23.2	0	3	338	0.00	30.139 
18:00	33.7	33.7	33.7	66	23.6	0	2	270	0.00	30.146 
18:05	33.5	33.5	33.5	65	23.0	1	2	315	0.00	30.147 
18:10	33.5	33.5	33.5	65	23.0	1	5	315	0.00	30.149 
18:15	33.5	33.5	33.5	64	22.6	2	4	270	0.00	30.150 
18:20	33.4	33.4	33.4	64	22.6	1	4	292	0.00	30.151 
18:25	33.4	33.4	33.4	64	22.6	1	3	292	0.00	30.156 
18:30	33.2	33.2	33.2	64	22.4	2	5	292	0.00	30.161 
18:35	33.1	33.1	33.1	64	22.3	2	4	315	0.00	30.164 
18:40	33.1	33.1	33.1	64	22.3	2	6	338	0.00	30.165 
18:45	32.9	32.9	32.9	64	22.1	2	5	292	0.00	30.166 
18:50	32.8	32.8	32.8	64	22.0	1	5	315	0.00	30.170 
18:55	32.7	32.7	32.7	64	21.9	2	9	315	0.00	30.171 
19:00	32.5	32.5	32.5	64	21.7	3	6	338	0.00	30.175 
19:05	32.4	32.4	32.4	64	21.6	2	5	292	0.00	30.179 
19:10	32.2	32.2	32.2	65	21.8	2	6	338	0.00	30.180 
19:15	32.2	32.2	32.2	65	21.8	2	6	338	0.00	30.181 
19:20	32.1	32.1	32.1	64	21.3	2	10	270	0.00	30.182 
19:25	31.9	31.9	31.9	64	21.1	1	3	292	0.00	30.182 
19:30	31.8	31.8	31.8	65	21.4	1	3	315	0.00	30.183 
19:35	31.6	31.6	31.6	64	20.8	1	4	338	0.00	30.183 
19:40	31.6	31.6	31.6	64	20.8	1	3	270	0.00	30.184 
19:45	31.6	31.6	31.6	64	20.8	1	4	315	0.00	30.186 
19:50	31.6	31.6	31.6	64	20.8	1	2	315	0.00	30.189 
19:55	31.5	31.5	31.5	64	20.7	1	3	270	0.00	30.190 
20:00	31.5	31.5	31.5	64	20.7	1	4	315	0.00	30.194 
20:05	31.5	31.5	31.5	64	20.7	1	3	292	0.00	30.195 
20:10	31.5	31.5	31.5	65	21.1	1	4	292	0.00	30.197 
20:15	31.5	31.5	31.5	64	20.7	1	4	270	0.00	30.198 
20:20	31.3	31.3	31.3	64	20.6	1	7	292	0.00	30.199 
20:25	31.3	31.3	31.3	64	20.6	1	2	338	0.00	30.201 
20:30	31.5	31.5	31.5	62	20.0	1	3	315	0.00	30.200 
20:35	31.5	31.5	31.5	62	20.0	1	6	338	0.00	30.201 
20:40	31.5	31.5	31.5	62	20.0	0	2	338	0.00	30.202 
20:45	31.5	31.5	31.5	62	20.0	0	2	292	0.00	30.203 
20:50	31.5	31.5	31.5	62	20.0	1	3	270	0.00	30.204 
20:55	31.3	31.3	31.3	62	19.8	0	3	0	0.00	30.206 
21:00	31.3	31.3	31.3	63	20.2	0	3	270	0.00	30.208 
21:05	31.3	31.3	31.3	63	20.2	1	2	270	0.00	30.212 
21:10	31.3	31.3	31.3	63	20.2	0	1	315	0.00	30.213 
21:15	31.3	31.3	31.3	64	20.6	0	2	315	0.00	30.214 
21:20	31.2	31.2	31.2	64	20.5	0	3	315	0.00	30.213 
21:25	31.2	31.2	31.2	65	20.8	0	1	315	0.00	30.214 
21:30	31.2	31.2	31.2	65	20.8	0	2	315	0.00	30.213 
21:35	31.0	31.0	31.0	64	20.3	0	2	270	0.00	30.214 
21:40	31.0	31.0	31.0	64	20.3	0	1	270	0.00	30.215 
21:45	31.0	31.0	31.0	65	20.6	0	1	270	0.00	30.216 
21:50	30.9	30.9	30.9	65	20.5	0	2	270	0.00	30.216 
21:55	30.9	30.9	30.9	65	20.5	0	1	270	0.00	30.217 
22:00	30.9	30.9	30.9	65	20.5	0	2	270	0.00	30.216 
22:05	30.9	30.9	30.9	66	20.9	0	1	270	0.00	30.214 
22:10	30.7	30.7	30.7	66	20.7	0	3	270	0.00	30.216 
22:15	30.7	30.7	30.7	67	21.1	0	2	338	0.00	30.220 
22:20	30.7	30.7	30.7	67	21.1	0	2	338	0.00	30.222 
22:25	30.6	30.6	30.6	68	21.3	0	1	315	0.00	30.222 
22:30	30.6	30.6	30.6	68	21.3	0	1	315	0.00	30.225 
22:35	30.4	30.4	30.4	69	21.5	0	1	315	0.00	30.223 
22:40	30.4	30.4	30.4	69	21.5	0	1	315	0.00	30.222 
22:45	30.3	30.3	30.3	70	21.7	0	1	315	0.00	30.220 
22:50	30.1	30.1	30.1	70	21.5	0	2	315	0.00	30.222 
22:55	30.1	30.1	30.1	71	21.9	0	2	270	0.00	30.223 
23:00	30.1	30.1	30.1	71	21.9	0	1	270	0.00	30.228 
23:05	30.0	30.0	30.0	72	22.1	0	0	---	0.00	30.230 
23:10	29.8	29.8	29.8	73	22.2	0	1	270	0.00	30.228 
23:15	29.8	29.8	29.8	73	22.2	0	2	270	0.00	30.226 
23:20	29.8	29.8	29.8	73	22.2	0	2	270	0.00	30.225 
23:25	29.7	29.7	29.7	74	22.4	0	1	270	0.00	30.223 
23:30	29.7	29.7	29.7	74	22.4	0	2	270	0.00	30.229 
23:35	29.5	29.5	29.5	75	22.6	0	2	270	0.00	30.229 
23:40	29.5	29.5	29.5	75	22.6	0	1	270	0.00	30.229 
23:45	29.5	29.5	29.5	76	22.9	0	1	270	0.00	30.230 
23:50	29.4	29.4	29.4	76	22.8	0	2	270	0.00	30.230 
23:55	29.4	29.4	29.4	76	22.8	0	1	270	0.00	30.230 

CoCoRaHS
IN-AL-39
A2 Web Hosting
Creative Commons License
GoDaddy
search engine by freefind advanced

loaded 2018-11-22 06:20:01 • last modified 2010-11-18 10:43:29
Privacy PolicyDisclaimer
• wx.awcolley.com is powered by PmWiki v.2002016 •
• all content (unless otherwise noted) © 2018 A W Colley